Time;durP1;ratioP1;P1;durP2;ratioP2;P2;SDS_P1;SDS_P2;PMS_P1;PMS_P2;Temp;Humidity;BMP_temperature;BMP_pressure;BME280_temperature;BME280_humidity;BME280_pressure;Samples;Min_cycle;Max_cycle;Signal;HPM_P1;HPM_P2
2022/07/09 00:00:15;;;;;;;4.75;2.70;;;;;;;17.34;68.42;101486.91;5070249;28;20060;-62
2022/07/09 00:02:42;;;;;;;4.70;2.97;;;;;;;17.33;68.33;101479.63;5073363;28;20504;-61
2022/07/09 00:05:12;;;;;;;4.18;2.63;;;;;;;17.30;68.39;101483.09;5074049;28;20488;-61
2022/07/09 00:07:39;;;;;;;6.45;3.30;;;;;;;17.27;68.70;101482.97;5071286;28;20060;-61
2022/07/09 00:10:07;;;;;;;5.05;3.25;;;;;;;17.24;68.47;101481.66;5073018;28;20060;-61
2022/07/09 00:12:34;;;;;;;7.20;3.00;;;;;;;17.18;68.77;101483.00;5073658;28;20048;-61
2022/07/09 00:15:02;;;;;;;4.72;3.38;;;;;;;17.16;68.94;101476.88;5073705;28;20409;-61
2022/07/09 00:17:31;;;;;;;5.63;3.40;;;;;;;17.14;68.95;101473.56;5073064;28;20051;-61
2022/07/09 00:19:58;;;;;;;6.22;3.03;;;;;;;17.08;69.15;101470.09;5069230;28;20055;-61
2022/07/09 00:22:27;;;;;;;4.05;2.47;;;;;;;17.08;69.04;101472.91;5073524;28;20064;-61
2022/07/09 00:24:54;;;;;;;5.07;2.70;;;;;;;17.09;68.73;101474.53;5072130;28;20417;-61
2022/07/09 00:27:21;;;;;;;4.60;2.80;;;;;;;17.09;68.75;101470.91;5073674;28;20503;-61
2022/07/09 00:29:49;;;;;;;3.60;3.00;;;;;;;17.06;68.94;101465.97;5069572;28;20124;-61
2022/07/09 00:32:18;;;;;;;6.15;2.75;;;;;;;17.02;69.04;101462.97;5073201;28;20049;-61
2022/07/09 00:34:46;;;;;;;3.83;2.80;;;;;;;17.02;69.10;101462.97;5072903;28;20056;-61
2022/07/09 00:37:14;;;;;;;4.87;3.23;;;;;;;17.00;69.18;101468.94;5073295;28;20049;-61
2022/07/09 00:39:41;;;;;;;4.97;3.08;;;;;;;17.00;69.15;101468.13;5070433;28;20513;-61
2022/07/09 00:42:10;;;;;;;4.55;3.08;;;;;;;17.00;69.06;101463.31;5073228;28;20048;-61
2022/07/09 00:44:38;;;;;;;4.65;2.90;;;;;;;16.98;68.99;101460.00;5072637;28;20056;-61
2022/07/09 00:47:08;;;;;;;3.75;3.15;;;;;;;16.95;69.16;101457.84;5072905;28;20489;-61
2022/07/09 00:49:39;;;;;;;3.53;3.00;;;;;;;16.95;69.32;101460.69;5070169;28;20052;-61
2022/07/09 00:52:12;;;;;;;4.70;2.88;;;;;;;16.94;69.25;101459.00;5072869;28;20060;-61
2022/07/09 00:54:40;;;;;;;4.78;3.30;;;;;;;16.92;69.30;101458.50;5072676;28;20052;-61
2022/07/09 00:57:10;;;;;;;4.78;2.97;;;;;;;16.89;69.51;101455.56;5072874;28;20496;-61
2022/07/09 00:59:39;;;;;;;6.22;2.83;;;;;;;16.86;69.56;101457.03;5070511;28;20053;-62
2022/07/09 01:02:08;;;;;;;4.65;2.75;;;;;;;16.85;69.51;101446.94;5071564;28;20060;-61
2022/07/09 01:04:36;;;;;;;4.63;3.10;;;;;;;16.86;69.36;101448.59;5072634;28;20059;-61
2022/07/09 01:07:04;;;;;;;4.97;2.90;;;;;;;16.82;69.32;101442.81;5072483;28;20056;-61
2022/07/09 01:09:33;;;;;;;6.10;3.40;;;;;;;16.83;69.31;101450.09;5070012;28;20202;-61
2022/07/09 01:12:00;;;;;;;5.55;3.80;;;;;;;16.75;69.76;101445.25;5072610;28;20052;-61
2022/07/09 01:14:28;;;;;;;4.90;3.08;;;;;;;16.71;69.64;101440.63;5072189;28;20381;-62
2022/07/09 01:17:00;;;;;;;3.97;3.55;;;;;;;16.66;69.68;101438.84;5072359;28;20067;-61
2022/07/09 01:19:29;;;;;;;4.60;3.40;;;;;;;16.56;69.98;101433.53;5066854;28;20384;-61
2022/07/09 01:21:59;;;;;;;4.70;3.33;;;;;;;16.52;70.09;101441.81;5072201;28;20052;-60
2022/07/09 01:24:28;;;;;;;3.95;2.85;;;;;;;16.49;70.21;101442.47;5071843;28;20059;-62
2022/07/09 01:26:55;;;;;;;3.72;3.33;;;;;;;16.46;70.48;101443.13;5072031;28;20416;-61
2022/07/09 01:29:23;;;;;;;6.22;3.45;;;;;;;16.44;70.67;101442.63;5067136;28;20476;-61
2022/07/09 01:31:51;;;;;;;6.07;3.83;;;;;;;16.45;70.76;101438.69;5072122;28;20067;-61
2022/07/09 01:34:18;;;;;;;5.43;3.70;;;;;;;16.43;70.82;101433.38;5056982;28;20048;-61
2022/07/09 01:36:46;;;;;;;4.70;3.53;;;;;;;16.47;70.61;101438.34;5051585;28;20061;-61
2022/07/09 01:39:17;;;;;;;4.38;3.20;;;;;;;16.45;70.47;101435.84;5056606;28;20491;-61
2022/07/09 01:41:45;;;;;;;5.45;4.22;;;;;;;16.43;70.69;101433.38;5070128;28;20060;-61
2022/07/09 01:44:12;;;;;;;4.13;3.53;;;;;;;16.42;70.87;101436.50;5072171;28;20060;-61
2022/07/09 01:46:39;;;;;;;6.88;3.45;;;;;;;16.43;70.79;101429.75;5071787;28;20052;-61
2022/07/09 01:49:09;;;;;;;5.40;3.88;;;;;;;16.39;71.02;101434.38;5069157;28;20504;-61
2022/07/09 01:51:36;;;;;;;3.88;3.30;;;;;;;16.35;71.00;101422.13;5071510;28;20056;-61
2022/07/09 01:54:07;;;;;;;4.40;3.28;;;;;;;16.36;71.10;101418.19;5072071;28;20055;-61
2022/07/09 01:56:36;;;;;;;5.00;3.17;;;;;;;16.36;71.08;101415.38;5071520;28;20055;-62
2022/07/09 01:59:03;;;;;;;4.20;3.53;;;;;;;16.36;71.13;101416.19;5069712;28;20052;-62
2022/07/09 02:01:30;;;;;;;4.40;3.50;;;;;;;16.34;71.25;101417.69;5069315;28;20056;-62
2022/07/09 02:03:57;;;;;;;4.32;3.30;;;;;;;16.32;71.36;101415.19;5062177;28;20067;-61
2022/07/09 02:06:30;;;;;;;4.35;3.30;;;;;;;16.29;71.33;101401.78;5051943;28;20049;-61
2022/07/09 02:08:58;;;;;;;7.63;4.05;;;;;;;16.25;71.36;101406.41;5051812;28;20045;-61
2022/07/09 02:11:26;;;;;;;5.32;3.45;;;;;;;16.24;71.50;101407.56;5068464;28;20048;-61
2022/07/09 02:13:55;;;;;;;4.30;3.63;;;;;;;16.21;71.73;101400.63;5071233;28;20052;-61
2022/07/09 02:16:27;;;;;;;4.30;3.65;;;;;;;16.18;71.81;101400.47;5071881;28;20056;-61
2022/07/09 02:18:56;;;;;;;6.40;4.20;;;;;;;16.13;72.02;101407.06;5071205;28;20049;-61
2022/07/09 02:21:23;;;;;;;4.18;3.78;;;;;;;16.14;71.78;101399.47;5069023;28;20061;-60
2022/07/09 02:23:50;;;;;;;4.43;3.10;;;;;;;16.13;71.68;101407.06;5071128;28;20056;-61
2022/07/09 02:26:18;;;;;;;6.43;3.55;;;;;;;16.13;71.77;101404.25;5070993;28;20068;-59
2022/07/09 02:28:48;;;;;;;3.83;3.33;;;;;;;16.13;71.53;101404.25;5071013;28;20053;-62
2022/07/09 02:31:17;;;;;;;3.45;3.10;;;;;;;16.13;71.11;101398.63;5069132;28;20059;-59
2022/07/09 02:33:44;;;;;;;4.43;3.17;;;;;;;16.11;70.95;101400.97;5071528;28;20404;-61
2022/07/09 02:36:12;;;;;;;3.53;3.20;;;;;;;16.11;71.10;101400.97;5071780;28;20053;-67
2022/07/09 02:38:39;;;;;;;5.03;3.40;;;;;;;16.07;71.16;101397.16;5071071;28;20492;-67
2022/07/09 02:41:09;;;;;;;4.95;3.60;;;;;;;16.03;71.38;101402.59;5069276;28;20048;-66
2022/07/09 02:43:36;;;;;;;6.32;4.00;;;;;;;16.01;71.58;101406.88;5071222;28;20053;-67
2022/07/09 02:46:03;;;;;;;6.25;3.83;;;;;;;16.00;71.93;101405.22;5071041;28;20064;-67
2022/07/09 02:48:32;;;;;;;5.80;4.20;;;;;;;15.93;72.51;101399.28;5074132;28;20052;-67
2022/07/09 02:51:00;;;;;;;6.53;4.57;;;;;;;15.94;72.33;101398.94;5072816;28;20051;-67
2022/07/09 02:53:30;;;;;;;5.97;3.83;;;;;;;15.97;72.57;101397.47;5074986;28;20493;-67
2022/07/09 02:55:58;;;;;;;5.13;3.90;;;;;;;15.96;72.90;101399.44;5074943;28;20056;-65
2022/07/09 02:58:25;;;;;;;5.10;3.95;;;;;;;16.06;72.67;101389.84;5074654;28;20493;-67
2022/07/09 03:00:52;;;;;;;5.72;3.60;;;;;;;16.15;72.76;101395.50;5074104;28;20397;-67
2022/07/09 03:03:23;;;;;;;7.28;4.10;;;;;;;16.23;72.84;101392.69;5068499;28;20390;-65
2022/07/09 03:05:51;;;;;;;5.60;4.40;;;;;;;16.34;72.79;101383.94;5074875;28;20056;-65
2022/07/09 03:08:21;;;;;;;4.80;3.72;;;;;;;16.43;72.57;101391.19;5075215;28;20052;-65
2022/07/09 03:10:49;;;;;;;3.97;3.58;;;;;;;16.52;72.37;101390.34;5074768;28;20048;-65
2022/07/09 03:13:16;;;;;;;6.40;4.05;;;;;;;16.60;72.15;101386.72;5072728;28;20055;-66
2022/07/09 03:15:44;;;;;;;5.75;4.32;;;;;;;16.65;71.86;101383.72;5074657;28;20056;-66
2022/07/09 03:18:11;;;;;;;4.65;3.78;;;;;;;16.72;71.82;101381.22;5074686;28;20057;-67
2022/07/09 03:20:42;;;;;;;7.38;4.40;;;;;;;16.79;71.64;101377.91;5074615;28;20491;-67
2022/07/09 03:23:12;;;;;;;8.23;4.00;;;;;;;16.84;71.42;101384.22;5067091;28;21327;-67
2022/07/09 03:25:40;;;;;;;5.85;4.13;;;;;;;16.86;71.60;101378.25;5074058;28;20061;-66
2022/07/09 03:28:07;;;;;;;5.55;3.72;;;;;;;16.92;71.42;101373.25;5074349;28;20056;-67
2022/07/09 03:30:35;;;;;;;5.82;3.70;;;;;;;16.94;71.40;101370.94;5074890;28;20059;-67
2022/07/09 03:33:02;;;;;;;6.25;4.35;;;;;;;16.90;71.72;101379.22;5071022;28;20044;-67
2022/07/09 03:35:32;;;;;;;7.72;4.15;;;;;;;16.93;71.48;101372.94;5074277;28;20057;-67
2022/07/09 03:38:00;;;;;;;4.93;3.92;;;;;;;16.99;71.54;101370.78;5074005;28;20055;-67
2022/07/09 03:40:30;;;;;;;6.22;4.65;;;;;;;17.02;71.56;101379.34;5074370;28;20048;-67
2022/07/09 03:42:58;;;;;;;5.50;3.85;;;;;;;17.10;71.16;101380.50;5068192;28;20068;-67
2022/07/09 03:45:25;;;;;;;4.82;3.92;;;;;;;17.16;71.16;101373.53;5072857;28;20056;-67
2022/07/09 03:47:52;;;;;;;6.15;4.03;;;;;;;17.17;71.39;101380.78;5073686;28;20053;-67
2022/07/09 03:50:20;;;;;;;5.88;4.25;;;;;;;17.22;71.24;101372.19;5074001;28;20045;-66
2022/07/09 03:52:47;;;;;;;5.53;4.15;;;;;;;17.29;71.13;101371.66;5071930;28;20508;-66
2022/07/09 03:55:14;;;;;;;9.43;4.53;;;;;;;17.36;71.18;101371.94;5073320;28;20053;-66
2022/07/09 03:57:43;;;;;;;7.00;4.15;;;;;;;17.42;70.85;101375.38;5073634;28;20052;-66
2022/07/09 04:00:11;;;;;;;6.65;3.90;;;;;;;17.48;70.79;101374.03;5073989;28;20052;-66
2022/07/09 04:02:39;;;;;;;4.53;3.90;;;;;;;17.57;70.29;101376.81;5064148;28;20041;-65
2022/07/09 04:05:12;;;;;;;8.73;3.75;;;;;;;17.62;69.75;101365.34;5073897;28;20056;-67
2022/07/09 04:07:41;;;;;;;6.63;3.70;;;;;;;17.65;69.46;101373.94;5060560;28;20049;-66
2022/07/09 04:10:09;;;;;;;7.05;4.63;;;;;;;17.73;69.38;101374.22;5071755;28;20401;-66
2022/07/09 04:12:39;;;;;;;4.32;3.55;;;;;;;17.78;69.16;101366.38;5065956;28;20053;-67
2022/07/09 04:15:08;;;;;;;7.40;4.72;;;;;;;17.83;68.84;101374.69;5072855;28;20044;-66
2022/07/09 04:17:36;;;;;;;7.88;4.28;;;;;;;17.90;68.66;101374.13;5073886;28;20052;-66
2022/07/09 04:20:06;;;;;;;6.25;4.20;;;;;;;17.93;68.67;101375.44;5073542;28;20052;-66
2022/07/09 04:22:36;;;;;;;10.18;5.03;;;;;;;17.78;68.96;101380.47;5067284;28;20048;-64
2022/07/09 04:25:04;;;;;;;7.68;5.88;;;;;;;17.87;68.66;101380.47;5071234;28;20059;-66
2022/07/09 04:27:31;;;;;;;5.57;4.57;;;;;;;17.88;68.77;101381.28;5068718;28;20052;-66
2022/07/09 04:29:59;;;;;;;5.35;4.28;;;;;;;18.02;68.32;101381.84;5069218;28;20077;-66
2022/07/09 04:32:27;;;;;;;6.50;4.80;;;;;;;17.80;69.19;101372.50;5067468;28;20417;-65
2022/07/09 04:34:55;;;;;;;6.73;4.43;;;;;;;18.02;68.56;101371.41;5068544;28;20067;-66
2022/07/09 04:37:22;;;;;;;7.03;4.57;;;;;;;18.13;68.31;101376.63;5071966;28;20486;-65
2022/07/09 04:39:50;;;;;;;7.63;4.80;;;;;;;18.13;68.13;101371.81;5071938;28;20052;-66
2022/07/09 04:42:19;;;;;;;6.53;4.30;;;;;;;18.18;68.13;101368.78;5072246;28;20052;-66
2022/07/09 04:44:47;;;;;;;7.07;4.18;;;;;;;18.25;68.21;101377.53;5068340;28;20417;-66
2022/07/09 04:47:14;;;;;;;5.85;4.50;;;;;;;18.34;68.02;101370.97;5071414;28;20056;-66
2022/07/09 04:49:43;;;;;;;8.38;5.05;;;;;;;18.36;68.06;101368.66;5071798;28;20052;-65
2022/07/09 04:52:10;;;;;;;6.80;4.83;;;;;;;18.41;68.17;101359.94;5072692;28;20390;-66
2022/07/09 04:54:37;;;;;;;9.48;6.45;;;;;;;18.38;68.56;101360.66;5069788;28;20052;-66
2022/07/09 04:57:06;;;;;;;6.55;5.95;;;;;;;18.43;68.44;101360.44;5060157;28;20053;-66
2022/07/09 04:59:33;;;;;;;9.13;5.75;;;;;;;18.56;68.20;101362.16;5061825;28;20074;-66
2022/07/09 05:02:00;;;;;;;8.55;5.97;;;;;;;18.64;67.87;101364.03;5053266;28;20417;-66
2022/07/09 05:04:27;;;;;;;8.98;5.88;;;;;;;18.73;67.81;101361.16;5052472;28;20060;-66
2022/07/09 05:06:56;;;;;;;8.20;5.75;;;;;;;18.87;67.48;101360.84;5054347;28;20052;-66
2022/07/09 05:09:23;;;;;;;7.38;5.15;;;;;;;18.98;67.21;101364.88;5071919;28;20056;-66
2022/07/09 05:11:51;;;;;;;6.43;5.30;;;;;;;19.08;67.11;101371.25;5072041;28;20055;-66
2022/07/09 05:14:18;;;;;;;5.60;4.28;;;;;;;19.21;66.80;101358.78;5070690;28;20401;-66
2022/07/09 05:16:45;;;;;;;5.70;4.35;;;;;;;19.39;66.05;101357.38;5051978;28;20053;-66
2022/07/09 05:19:13;;;;;;;5.00;4.25;;;;;;;19.46;65.68;101365.25;5059660;28;20071;-66
2022/07/09 05:21:41;;;;;;;7.38;4.63;;;;;;;19.46;65.69;101359.59;5067517;28;20477;-66
2022/07/09 05:24:09;;;;;;;9.30;6.15;;;;;;;19.46;65.55;101362.44;5072215;28;20409;-66
2022/07/09 05:26:37;;;;;;;8.40;5.63;;;;;;;19.51;65.29;101367.00;5052253;28;20057;-66
2022/07/09 05:29:04;;;;;;;7.35;4.80;;;;;;;19.53;65.00;101370.31;5049703;28;21015;-67
2022/07/09 05:31:31;;;;;;;7.65;5.68;;;;;;;19.53;65.08;101379.63;5051991;28;20049;-67
2022/07/09 05:34:00;;;;;;;7.50;6.05;;;;;;;19.53;65.07;101375.97;5051590;28;20049;-66
2022/07/09 05:36:28;;;;;;;8.30;5.78;;;;;;;19.54;65.35;101372.78;5051525;28;20064;-66
2022/07/09 05:38:56;;;;;;;6.75;6.10;;;;;;;19.57;65.43;101379.72;5040883;28;20162;-66
2022/07/09 05:41:25;;;;;;;8.55;6.20;;;;;;;19.59;65.43;101378.22;5042128;28;20060;-66
2022/07/09 05:43:52;;;;;;;7.78;5.85;;;;;;;19.61;65.45;101378.69;5051657;28;20053;-66
2022/07/09 05:46:20;;;;;;;6.70;6.03;;;;;;;19.65;65.16;101382.47;5051846;28;20391;-67
2022/07/09 05:48:48;;;;;;;8.93;6.22;;;;;;;19.73;65.40;101375.03;5049076;28;20421;-66
2022/07/09 05:51:15;;;;;;;7.00;5.75;;;;;;;19.91;65.10;101377.59;5052048;28;20405;-67
2022/07/09 05:53:42;;;;;;;6.93;5.97;;;;;;;20.01;64.99;101379.94;5051860;28;20060;-67
2022/07/09 05:56:10;;;;;;;8.15;6.22;;;;;;;20.16;64.89;101373.56;5048391;28;20048;-66
2022/07/09 05:58:39;;;;;;;9.02;6.60;;;;;;;20.49;64.12;101380.97;5051571;28;20063;-67
2022/07/09 06:01:06;;;;;;;8.57;6.18;;;;;;;20.78;63.15;101374.16;5051771;28;20045;-66
2022/07/09 06:03:33;;;;;;;7.53;5.63;;;;;;;20.94;62.88;101374.19;5051511;28;20060;-66
2022/07/09 06:06:01;;;;;;;7.07;6.10;;;;;;;21.12;61.99;101377.47;5046540;28;20049;-65
2022/07/09 06:08:28;;;;;;;6.22;5.47;;;;;;;21.22;62.05;101367.63;5032243;28;20061;-66
2022/07/09 06:10:55;;;;;;;10.25;5.78;;;;;;;21.40;61.45;101366.06;5031949;28;20065;-66
2022/07/09 06:13:23;;;;;;;8.07;5.32;;;;;;;21.51;61.12;101371.22;5031664;28;20061;-66
2022/07/09 06:15:53;;;;;;;7.95;5.82;;;;;;;21.56;61.24;101373.75;5031966;28;20053;-66
2022/07/09 06:18:21;;;;;;;6.90;5.80;;;;;;;21.59;60.86;101368.19;5050437;28;20489;-66
2022/07/09 06:20:49;;;;;;;6.85;5.30;;;;;;;21.66;60.57;101368.34;5051576;28;20462;-66
2022/07/09 06:23:17;;;;;;;6.88;4.68;;;;;;;21.60;60.52;101369.00;5053998;28;20049;-66
2022/07/09 06:25:44;;;;;;;7.03;4.20;;;;;;;21.68;60.10;101373.66;5068184;28;20067;-67
2022/07/09 06:28:11;;;;;;;4.63;4.18;;;;;;;21.80;59.53;101372.72;5070472;28;20385;-66
2022/07/09 06:30:38;;;;;;;4.82;3.22;;;;;;;21.94;59.43;101373.03;5075443;28;20452;-66
2022/07/09 06:33:07;;;;;;;5.32;2.90;;;;;;;21.96;58.79;101364.16;5075242;28;20060;-66
2022/07/09 06:35:34;;;;;;;4.95;3.17;;;;;;;22.09;57.99;101374.19;5075460;28;20079;-66
2022/07/09 06:38:02;;;;;;;3.30;2.50;;;;;;;22.17;57.14;101373.13;5073247;28;20059;-66
2022/07/09 06:40:29;;;;;;;3.28;2.65;;;;;;;22.27;56.91;101369.72;5075309;28;20048;-67
2022/07/09 06:42:56;;;;;;;3.80;2.22;;;;;;;22.40;55.73;101369.59;5074925;28;20056;-66
2022/07/09 06:45:24;;;;;;;3.80;2.13;;;;;;;22.44;55.23;101368.47;5075022;28;20136;-66
2022/07/09 06:47:52;;;;;;;3.30;1.88;;;;;;;22.58;54.51;101376.47;5071663;28;20052;-66
2022/07/09 06:50:21;;;;;;;2.55;1.70;;;;;;;22.57;54.33;101366.28;5075074;28;20056;-66
2022/07/09 06:52:49;;;;;;;4.50;2.40;;;;;;;22.83;54.85;101361.94;5075064;28;20401;-66
2022/07/09 06:55:16;;;;;;;4.35;3.00;;;;;;;23.05;54.54;101366.81;5073208;28;20402;-66
2022/07/09 06:57:43;;;;;;;3.63;2.20;;;;;;;23.11;53.06;101370.19;5070531;28;20357;-66
2022/07/09 07:00:11;;;;;;;3.13;1.60;;;;;;;23.29;51.67;101373.34;5074930;28;20052;-66
2022/07/09 07:02:38;;;;;;;2.97;1.65;;;;;;;23.53;51.57;101362.75;5074886;28;20052;-66
2022/07/09 07:05:06;;;;;;;2.38;1.77;;;;;;;23.81;51.31;101365.25;5074943;28;20400;-66
2022/07/09 07:07:35;;;;;;;3.45;1.67;;;;;;;23.97;50.47;101368.75;5071216;28;20059;-66
2022/07/09 07:10:02;;;;;;;2.67;1.60;;;;;;;24.21;49.80;101367.47;5074827;28;20048;-66
2022/07/09 07:12:30;;;;;;;5.10;1.95;;;;;;;24.26;50.00;101367.09;5074532;28;20071;-66
2022/07/09 07:14:57;;;;;;;2.28;1.33;;;;;;;24.49;48.95;101369.88;5074757;28;20060;-66
2022/07/09 07:17:24;;;;;;;2.33;1.10;;;;;;;24.65;48.78;101369.66;5070943;28;20056;-66
2022/07/09 07:19:52;;;;;;;2.40;1.27;;;;;;;24.74;47.88;101372.19;5074584;28;20056;-66
2022/07/09 07:22:19;;;;;;;2.03;1.33;;;;;;;24.75;47.58;101362.41;5074435;28;20055;-66
2022/07/09 07:24:47;;;;;;;2.88;1.40;;;;;;;24.62;48.23;101370.41;5074222;28;20064;-66
2022/07/09 07:27:15;;;;;;;2.17;1.40;;;;;;;24.74;47.01;101374.19;5072226;28;20057;-66
2022/07/09 07:29:42;;;;;;;3.10;1.20;;;;;;;24.65;47.65;101360.25;5054680;28;20064;-66
2022/07/09 07:32:10;;;;;;;3.65;1.15;;;;;;;24.71;46.45;101368.09;5054384;28;20060;-66
2022/07/09 07:34:37;;;;;;;3.67;1.20;;;;;;;24.81;46.40;101362.91;5053541;28;20067;-66
2022/07/09 07:37:05;;;;;;;4.20;1.50;;;;;;;24.97;46.44;101369.19;5056946;28;20045;-66
2022/07/09 07:39:32;;;;;;;4.45;2.00;;;;;;;25.29;46.04;101357.28;5071532;28;20068;-66
2022/07/09 07:42:01;;;;;;;4.05;1.80;;;;;;;25.47;45.19;101352.53;5073800;28;20045;-66
2022/07/09 07:44:28;;;;;;;1.48;1.00;;;;;;;25.67;44.28;101343.72;5074222;28;20068;-66
2022/07/09 07:46:56;;;;;;;2.08;0.98;;;;;;;25.70;44.17;101348.59;5071901;28;20547;-65
2022/07/09 07:49:23;;;;;;;2.33;1.30;;;;;;;25.75;44.66;101353.97;5071869;28;20064;-65
2022/07/09 07:51:50;;;;;;;2.08;1.20;;;;;;;25.76;44.28;101344.16;5073948;28;20075;-66
2022/07/09 07:54:18;;;;;;;2.78;1.35;;;;;;;25.92;43.98;101344.72;5073865;28;20492;-66
2022/07/09 07:56:45;;;;;;;2.25;1.05;;;;;;;26.15;42.29;101340.75;5067438;28;20051;-66
2022/07/09 07:59:14;;;;;;;3.17;0.90;;;;;;;26.22;42.02;101349.34;5073741;28;20080;-66
2022/07/09 08:01:41;;;;;;;2.17;1.10;;;;;;;26.32;41.58;101353.47;5073572;28;20048;-66
2022/07/09 08:04:09;;;;;;;2.17;1.00;;;;;;;26.87;40.92;101347.53;5073533;28;20053;-66
2022/07/09 08:06:36;;;;;;;3.60;0.90;;;;;;;27.18;40.88;101347.16;5070210;28;20053;-65
2022/07/09 08:09:04;;;;;;;2.03;1.05;;;;;;;27.32;40.58;101341.50;5073479;28;20057;-65
2022/07/09 08:11:31;;;;;;;2.00;1.00;;;;;;;27.07;40.35;101345.13;5073683;28;20075;-66
2022/07/09 08:13:58;;;;;;;2.72;1.15;;;;;;;26.98;40.71;101347.53;5073209;28;20167;-66
2022/07/09 08:16:27;;;;;;;1.83;1.10;;;;;;;28.00;38.85;101349.16;5070649;28;20052;-65
2022/07/09 08:18:54;;;;;;;2.00;0.80;;;;;;;28.01;38.58;101339.34;5073333;28;20428;-65
2022/07/09 08:21:22;;;;;;;1.67;0.80;;;;;;;27.73;38.93;101349.59;5072984;28;20056;-65
2022/07/09 08:23:53;;;;;;;1.42;0.80;;;;;;;27.46;38.34;101335.72;5073419;28;20071;-65
2022/07/09 08:26:22;;;;;;;1.35;0.73;;;;;;;27.22;38.46;101339.41;5070464;28;20056;-65
2022/07/09 08:28:50;;;;;;;3.47;0.88;;;;;;;28.57;36.87;101337.47;5070387;28;20044;-65
2022/07/09 08:31:17;;;;;;;2.22;0.75;;;;;;;29.44;35.08;101332.78;5073073;28;20417;-65
2022/07/09 08:33:47;;;;;;;1.08;0.80;;;;;;;31.18;32.50;101329.38;5073495;28;20056;-65
2022/07/09 08:36:14;;;;;;;1.73;0.90;;;;;;;32.39;30.99;101316.81;5071057;28;20056;-65
2022/07/09 08:38:42;;;;;;;1.40;0.75;;;;;;;33.10;30.14;101314.34;5072368;28;20048;-66
2022/07/09 08:41:09;;;;;;;1.20;0.80;;;;;;;34.33;27.39;101309.72;5073076;28;20060;-66
2022/07/09 08:43:38;;;;;;;1.30;0.77;;;;;;;34.61;26.83;101305.16;5072925;28;20049;-66
2022/07/09 08:46:06;;;;;;;1.48;0.65;;;;;;;35.14;25.94;101290.22;5071921;28;20063;-66
2022/07/09 08:48:34;;;;;;;1.48;0.75;;;;;;;35.71;25.65;101294.00;5070615;28;20055;-66
2022/07/09 08:51:04;;;;;;;2.00;0.90;;;;;;;36.56;23.53;101283.31;5072687;28;20056;-66
2022/07/09 08:53:33;;;;;;;2.03;0.80;;;;;;;37.24;23.14;101281.78;5072819;28;20056;-66
2022/07/09 08:56:00;;;;;;;1.10;0.70;;;;;;;38.04;22.61;101271.97;5069084;28;20052;-66
2022/07/09 08:58:33;;;;;;;1.30;0.80;;;;;;;38.15;22.25;101274.38;5072668;28;20056;-65
2022/07/09 09:01:00;;;;;;;1.65;0.82;;;;;;;38.62;22.03;101275.03;5072553;28;20067;-65
2022/07/09 09:03:28;;;;;;;1.95;0.88;;;;;;;37.87;23.01;101286.03;5072293;28;20071;-65
2022/07/09 09:06:04;;;;;;;1.43;0.83;;;;;;;37.03;23.77;101286.41;5068385;28;20052;-65
2022/07/09 09:08:36;;;;;;;1.83;1.00;;;;;;;36.10;23.37;101282.19;5072628;28;20056;-65
2022/07/09 09:11:07;;;;;;;1.60;0.95;;;;;;;35.04;24.83;101285.59;5072248;28;20052;-65
2022/07/09 09:13:40;;;;;;;1.25;0.88;;;;;;;33.90;26.16;101285.78;5072053;28;20417;-65
2022/07/09 09:16:10;;;;;;;2.17;1.20;;;;;;;33.41;27.66;101283.03;5069216;28;20055;-65
2022/07/09 09:18:41;;;;;;;2.47;1.15;;;;;;;33.97;26.62;101282.66;5071734;28;20052;-65
2022/07/09 09:21:11;;;;;;;2.05;1.08;;;;;;;33.98;26.05;101271.94;5072059;28;20497;-65
2022/07/09 09:23:42;;;;;;;1.60;0.80;;;;;;;34.53;25.55;101269.03;5071794;28;20049;-65
2022/07/09 09:26:12;;;;;;;1.70;0.90;;;;;;;34.55;25.55;101273.09;5068360;28;20056;-65
2022/07/09 09:28:49;;;;;;;1.88;0.90;;;;;;;34.30;26.13;101261.50;5063261;28;20086;-65
2022/07/09 09:31:24;;;;;;;1.98;1.00;;;;;;;34.19;26.43;101267.63;5071850;28;20059;-65
2022/07/09 09:33:56;;;;;;;2.08;1.00;;;;;;;34.23;26.32;101267.50;5071802;28;20063;-65
2022/07/09 09:36:33;;;;;;;3.25;1.23;;;;;;;33.93;26.61;101270.41;5069512;28;20051;-64
2022/07/09 09:39:15;;;;;;;2.03;1.30;;;;;;;34.14;25.87;101266.09;5070042;28;20417;-64
2022/07/09 09:41:45;;;;;;;2.75;1.30;;;;;;;33.89;26.80;101263.94;5071646;28;20057;-64
2022/07/09 09:44:14;;;;;;;2.60;1.70;;;;;;;33.24;27.18;101279.34;5071285;28;20422;-65
2022/07/09 09:46:43;;;;;;;2.38;1.33;;;;;;;32.73;28.10;101270.28;5069921;28;20071;-65
2022/07/09 09:49:14;;;;;;;4.53;1.70;;;;;;;32.12;28.81;101263.00;5070835;28;20408;-65
2022/07/09 09:51:50;;;;;;;2.30;1.63;;;;;;;31.80;28.92;101252.97;5071635;28;20405;-65
2022/07/09 09:54:19;;;;;;;2.55;1.65;;;;;;;31.53;29.79;101259.66;5069937;28;20052;-64
2022/07/09 09:56:47;;;;;;;2.30;1.30;;;;;;;30.89;31.14;101257.91;5065607;28;20057;-64
2022/07/09 09:59:14;;;;;;;2.78;1.70;;;;;;;30.47;31.35;101257.28;5071600;28;20119;-64
2022/07/09 10:01:43;;;;;;;3.20;1.63;;;;;;;30.13;32.34;101258.16;5071289;28;20389;-65
2022/07/09 10:04:12;;;;;;;3.30;1.60;;;;;;;29.91;32.97;101252.69;5071175;28;20044;-64
2022/07/09 10:06:41;;;;;;;3.85;1.88;;;;;;;29.98;33.64;101256.72;5064362;28;20408;-65
2022/07/09 10:09:12;;;;;;;3.90;1.75;;;;;;;29.75;34.34;101258.22;5069574;28;20044;-65
2022/07/09 10:11:44;;;;;;;3.42;1.80;;;;;;;29.65;33.94;101257.09;5071144;28;20082;-65
2022/07/09 10:14:19;;;;;;;2.88;1.73;;;;;;;29.45;33.86;101254.03;5071313;28;20052;-65
2022/07/09 10:16:47;;;;;;;2.63;1.70;;;;;;;29.50;33.77;101259.31;5067843;28;20053;-64
2022/07/09 10:19:25;;;;;;;3.17;1.83;;;;;;;29.40;34.23;101250.78;5068587;28;20044;-65
2022/07/09 10:21:53;;;;;;;2.97;1.63;;;;;;;29.44;33.67;101249.53;5071254;28;20052;-64
2022/07/09 10:24:27;;;;;;;3.15;1.60;;;;;;;29.63;33.56;101253.00;5070449;28;20049;-64
2022/07/09 10:27:04;;;;;;;3.15;1.65;;;;;;;29.51;33.99;101254.38;5068067;28;20056;-64
2022/07/09 10:29:31;;;;;;;2.30;1.20;;;;;;;29.46;33.37;101252.78;5071197;28;20052;-65
2022/07/09 10:31:59;;;;;;;2.80;1.58;;;;;;;29.31;34.17;101249.22;5071008;28;20052;-65
2022/07/09 10:34:59;;;;;;;2.60;1.40;;;;;;;29.34;33.77;101244.72;5071303;28;20052;-64
2022/07/09 10:37:34;;;;;;;2.72;1.40;;;;;;;29.42;34.30;101248.31;5065148;28;20048;-64
2022/07/09 10:40:14;;;;;;;2.42;1.60;;;;;;;29.40;34.04;101247.94;5064580;28;20044;-63
2022/07/09 10:42:43;;;;;;;2.80;1.50;;;;;;;29.49;34.16;101237.56;5070702;28;20052;-64
2022/07/09 10:45:23;;;;;;;4.55;1.45;;;;;;;29.62;33.09;101237.84;5071018;28;20063;-64
2022/07/09 10:47:55;;;;;;;2.33;1.20;;;;;;;29.75;32.92;101238.13;5068760;28;20071;-64
2022/07/09 10:50:22;;;;;;;3.28;1.40;;;;;;;29.80;32.41;101229.06;5070696;28;20060;-63
2022/07/09 10:52:50;;;;;;;3.00;1.40;;;;;;;29.71;32.94;101237.34;5070569;28;20489;-64
2022/07/09 10:55:23;;;;;;;3.47;1.30;;;;;;;29.80;32.87;101231.94;5060550;28;20045;-64
2022/07/09 10:57:50;;;;;;;2.63;1.40;;;;;;;29.71;33.14;101229.56;5050880;28;20060;-64
2022/07/09 11:00:19;;;;;;;3.67;1.92;;;;;;;29.57;33.33;101229.72;5050760;28;20398;-64
2022/07/09 11:02:53;;;;;;;4.22;3.10;;;;;;;29.66;33.38;101224.25;5051010;28;20049;-64
2022/07/09 11:05:21;;;;;;;2.47;1.40;;;;;;;29.55;33.45;101224.38;5056160;28;20064;-63
2022/07/09 11:07:59;;;;;;;3.33;2.63;;;;;;;29.85;33.47;101224.88;5066820;28;20052;-64
2022/07/09 11:10:29;;;;;;;4.13;2.53;;;;;;;29.97;32.74;101226.38;5074575;28;20044;-64
2022/07/09 11:12:58;;;;;;;3.25;1.77;;;;;;;30.28;33.30;101219.38;5074103;28;20052;-64
2022/07/09 11:15:27;;;;;;;2.75;1.75;;;;;;;30.67;32.33;101211.41;5071143;28;20166;-63
2022/07/09 11:17:56;;;;;;;2.55;1.88;;;;;;;31.09;31.87;101212.75;5067597;28;20063;-64
2022/07/09 11:20:23;;;;;;;3.65;2.08;;;;;;;30.93;31.38;101206.88;5073946;28;20072;-64
2022/07/09 11:22:51;;;;;;;3.80;2.08;;;;;;;30.63;31.42;101211.44;5074388;28;20055;-64
2022/07/09 11:25:21;;;;;;;3.75;1.90;;;;;;;30.31;32.10;101206.22;5072253;28;20455;-64
2022/07/09 11:27:50;;;;;;;3.78;2.05;;;;;;;29.88;32.87;101204.75;5073171;28;20053;-64
2022/07/09 11:30:17;;;;;;;4.78;2.45;;;;;;;29.39;34.23;101211.88;5074432;28;20075;-64